Time;durP1;ratioP1;P1;durP2;ratioP2;P2;SDS_P1;SDS_P2;PMS_P1;PMS_P2;Temp;Humidity;BMP_temperature;BMP_pressure;BME280_temperature;BME280_humidity;BME280_pressure;Samples;Min_cycle;Max_cycle;Signal;HPM_P1;HPM_P2
2022/08/31 00:04:07;;;;;;;4.20;1.20;;;;;;;18.50;68.15;100815.27;103465;1277;108628;-70
2022/08/31 00:06:35;;;;;;;4.00;1.10;;;;;;;18.50;68.10;100818.69;104170;1279;139387;-68
2022/08/31 00:09:05;;;;;;;4.50;1.20;;;;;;;18.51;67.95;100815.41;103465;1279;107361;-68
2022/08/31 00:11:34;;;;;;;5.30;1.40;;;;;;;18.52;67.91;100817.70;103480;1279;95468;-69
2022/08/31 00:14:07;;;;;;;5.10;1.40;;;;;;;18.47;68.02;100817.41;105268;1278;94622;-68
2022/08/31 00:16:42;;;;;;;5.40;1.60;;;;;;;18.43;68.13;100818.34;103419;1279;108348;-68
2022/08/31 00:19:11;;;;;;;5.60;1.30;;;;;;;18.35;68.36;100819.48;103290;1278;139302;-69
2022/08/31 00:21:39;;;;;;;5.30;1.50;;;;;;;18.30;68.36;100820.80;103386;1278;108863;-69
2022/08/31 00:24:09;;;;;;;5.10;1.50;;;;;;;18.30;68.37;100824.63;103228;1279;138819;-69
2022/08/31 00:26:37;;;;;;;5.30;1.60;;;;;;;18.28;68.43;100827.41;103318;1279;94402;-67
2022/08/31 00:29:05;;;;;;;5.10;1.30;;;;;;;18.24;68.61;100824.56;103383;1279;108342;-69
2022/08/31 00:31:33;;;;;;;7.10;1.70;;;;;;;18.21;68.68;100826.50;103243;1278;138598;-66
2022/08/31 00:34:03;;;;;;;5.40;1.30;;;;;;;18.18;68.60;100828.42;103495;1278;108872;-68
2022/08/31 00:36:31;;;;;;;4.90;1.40;;;;;;;18.17;68.52;100828.99;103578;1279;138117;-68
2022/08/31 00:39:00;;;;;;;4.10;1.30;;;;;;;18.15;68.52;100830.02;103999;1279;94864;-69
2022/08/31 00:41:30;;;;;;;5.20;1.20;;;;;;;18.13;68.74;100833.91;103371;1279;108489;-68
2022/08/31 00:44:01;;;;;;;5.10;1.40;;;;;;;18.13;68.54;100833.34;103734;1279;138214;-69
2022/08/31 00:46:36;;;;;;;5.30;1.40;;;;;;;18.11;68.64;100832.02;103432;1279;108952;-69
2022/08/31 00:49:06;;;;;;;5.20;1.20;;;;;;;18.02;68.82;100833.36;103743;1278;138501;-68
2022/08/31 00:51:42;;;;;;;5.40;1.60;;;;;;;17.98;68.88;100837.00;103495;1279;94251;-67
2022/08/31 00:54:13;;;;;;;4.80;1.40;;;;;;;17.95;69.11;100836.24;103417;1279;138839;-69
2022/08/31 00:56:43;;;;;;;4.30;1.50;;;;;;;17.93;69.11;100839.59;103967;1278;98187;-69
2022/08/31 00:59:15;;;;;;;4.80;1.30;;;;;;;17.90;69.07;100834.84;103422;1278;108288;-68
2022/08/31 01:01:43;;;;;;;5.70;1.40;;;;;;;17.90;69.26;100836.81;103450;1278;138996;-68
2022/08/31 01:04:11;;;;;;;4.30;1.40;;;;;;;17.89;69.31;100834.90;103406;1279;94535;-68
2022/08/31 01:06:42;;;;;;;4.90;1.40;;;;;;;17.86;69.35;100834.31;103378;1278;138382;-68
2022/08/31 01:09:11;;;;;;;4.70;1.50;;;;;;;17.85;69.19;100830.77;103378;1279;99680;-68
2022/08/31 01:11:41;;;;;;;5.40;1.40;;;;;;;17.84;69.26;100830.64;104265;1278;138895;-68
2022/08/31 01:14:10;;;;;;;5.30;1.30;;;;;;;17.83;69.15;100831.80;103249;1279;94737;-68
2022/08/31 01:16:47;;;;;;;4.90;1.40;;;;;;;17.80;69.25;100829.41;104461;1279;94697;-67
2022/08/31 01:19:33;;;;;;;4.50;1.20;;;;;;;17.80;69.15;100830.47;103313;1278;138548;-69
2022/08/31 01:22:11;;;;;;;6.10;1.60;;;;;;;17.77;69.19;100830.98;103408;1279;97610;-67
2022/08/31 01:24:43;;;;;;;5.70;1.70;;;;;;;17.75;69.25;100830.95;103184;1279;139251;-68
2022/08/31 01:27:14;;;;;;;5.70;1.40;;;;;;;17.70;69.30;100830.77;103264;1279;94434;-68
2022/08/31 01:29:41;;;;;;;4.70;1.20;;;;;;;17.66;69.42;100837.63;107181;1278;138108;-68
2022/08/31 01:32:10;;;;;;;4.90;1.50;;;;;;;17.64;69.34;100832.70;103625;1279;108320;-68
2022/08/31 01:34:38;;;;;;;5.40;1.30;;;;;;;17.66;69.22;100830.30;106475;1279;99443;-69
2022/08/31 01:37:07;;;;;;;4.10;1.30;;;;;;;17.66;69.25;100828.98;103579;1279;138944;-69
2022/08/31 01:39:35;;;;;;;4.50;1.40;;;;;;;17.70;69.15;100829.17;104001;1279;94693;-68
2022/08/31 01:42:04;;;;;;;4.70;1.40;;;;;;;17.67;69.01;100831.10;103258;1278;138202;-70
2022/08/31 01:44:32;;;;;;;4.60;1.40;;;;;;;17.64;69.03;100831.29;103405;1279;107364;-68
2022/08/31 01:47:00;;;;;;;5.90;1.50;;;;;;;17.63;69.13;100830.61;103377;1278;99571;-68
2022/08/31 01:49:28;;;;;;;4.80;1.40;;;;;;;17.62;69.04;100829.38;103227;1277;139098;-68
2022/08/31 01:51:57;;;;;;;5.30;1.40;;;;;;;17.60;69.00;100831.11;103371;1279;94670;-69
2022/08/31 01:54:26;;;;;;;5.10;1.50;;;;;;;17.51;69.36;100829.57;103189;1279;138634;-69
2022/08/31 01:56:55;;;;;;;6.40;1.60;;;;;;;17.47;69.56;100832.65;106313;1277;108592;-68
2022/08/31 01:59:52;;;;;;;6.10;1.40;;;;;;;17.46;69.54;100830.00;102952;1279;139144;-68
2022/08/31 02:02:41;;;;;;;5.80;1.40;;;;;;;17.45;69.42;100829.70;103456;1278;108735;-67
2022/08/31 02:05:13;;;;;;;6.70;1.70;;;;;;;17.42;69.48;100827.16;107294;1277;92575;-68
2022/08/31 02:07:41;;;;;;;4.60;1.60;;;;;;;17.41;69.49;100830.06;107115;1279;139015;-69
2022/08/31 02:10:09;;;;;;;6.00;1.60;;;;;;;17.37;69.61;100824.33;107300;1278;108718;-69
2022/08/31 02:12:37;;;;;;;4.60;1.50;;;;;;;17.36;69.72;100828.83;104487;1278;138539;-68
2022/08/31 02:15:08;;;;;;;6.40;1.50;;;;;;;17.38;69.52;100828.58;103422;1279;107571;-68
2022/08/31 02:17:36;;;;;;;5.60;1.50;;;;;;;17.38;69.45;100828.02;103387;1279;138820;-68
2022/08/31 02:20:06;;;;;;;4.70;1.40;;;;;;;17.37;69.39;100823.95;103367;1279;94791;-69
2022/08/31 02:22:34;;;;;;;6.00;1.80;;;;;;;17.32;69.48;100824.70;103426;1279;109173;-69
2022/08/31 02:25:02;;;;;;;4.70;1.50;;;;;;;17.30;69.48;100823.95;103259;1279;138452;-68
2022/08/31 02:27:30;;;;;;;5.40;1.50;;;;;;;17.30;69.34;100820.17;104218;1279;109133;-69
2022/08/31 02:29:58;;;;;;;4.70;1.50;;;;;;;17.29;69.51;100820.73;103225;1279;139579;-68
2022/08/31 02:32:26;;;;;;;4.80;1.20;;;;;;;17.30;69.33;100819.64;103336;1279;94322;-68
2022/08/31 02:34:57;;;;;;;6.30;1.80;;;;;;;17.23;69.45;100819.94;105662;1279;107738;-69
2022/08/31 02:37:25;;;;;;;6.50;1.50;;;;;;;17.22;69.52;100818.39;103331;1277;138623;-68
2022/08/31 02:39:53;;;;;;;5.40;1.70;;;;;;;17.23;69.36;100818.71;104623;1279;109194;-69
2022/08/31 02:42:22;;;;;;;5.60;1.60;;;;;;;17.22;69.39;100818.39;103203;1279;139085;-68
2022/08/31 02:44:50;;;;;;;5.60;1.30;;;;;;;17.18;69.46;100820.38;103320;1279;94826;-68
2022/08/31 02:47:18;;;;;;;5.10;1.50;;;;;;;17.19;69.35;100820.52;103253;1279;108575;-69
2022/08/31 02:50:03;;;;;;;4.30;1.20;;;;;;;17.19;69.41;100816.36;104574;1279;98460;-69
2022/08/31 02:52:31;;;;;;;5.00;1.50;;;;;;;17.18;69.42;100818.95;103351;1279;108910;-69
2022/08/31 02:54:59;;;;;;;5.30;1.60;;;;;;;17.17;69.43;100820.05;103298;1279;138500;-68
2022/08/31 02:57:28;;;;;;;5.20;1.40;;;;;;;17.14;69.56;100821.98;103413;1279;94327;-70
2022/08/31 02:59:57;;;;;;;5.90;1.30;;;;;;;17.08;69.61;100820.27;103188;1279;138792;-69
2022/08/31 03:02:26;;;;;;;5.40;1.40;;;;;;;17.08;69.64;100817.27;103335;1279;99472;-68
2022/08/31 03:05:01;;;;;;;6.20;1.60;;;;;;;17.09;69.64;100821.51;103404;1279;108230;-68
2022/08/31 03:07:29;;;;;;;5.30;1.50;;;;;;;17.09;69.63;100824.58;103691;1279;138383;-69
2022/08/31 03:09:59;;;;;;;4.60;1.30;;;;;;;17.11;69.58;100822.13;103505;1279;94386;-68
2022/08/31 03:12:27;;;;;;;5.50;1.60;;;;;;;17.11;69.42;100822.33;103359;1278;138333;-68
2022/08/31 03:14:55;;;;;;;4.90;1.40;;;;;;;17.09;69.53;100823.48;103570;1279;98903;-68
2022/08/31 03:17:23;;;;;;;4.90;1.40;;;;;;;17.09;69.49;100822.94;103495;1277;107765;-67
2022/08/31 03:19:59;;;;;;;5.20;1.50;;;;;;;17.04;69.48;100824.43;103245;1281;138288;-70
2022/08/31 03:22:28;;;;;;;5.50;1.50;;;;;;;16.99;69.63;100828.25;103374;1278;95225;-68
2022/08/31 03:24:57;;;;;;;5.10;1.30;;;;;;;17.00;69.66;100830.90;103883;1279;139258;-68
2022/08/31 03:27:28;;;;;;;4.90;1.40;;;;;;;17.02;69.54;100827.20;103470;1279;101280;-69
2022/08/31 03:29:57;;;;;;;5.10;1.40;;;;;;;17.05;69.34;100832.27;103472;1279;138586;-68
2022/08/31 03:32:29;;;;;;;4.50;1.30;;;;;;;17.04;69.36;100831.06;103488;1278;95835;-68
2022/08/31 03:34:59;;;;;;;6.20;1.60;;;;;;;17.03;69.22;100830.36;103869;1278;95250;-68
2022/08/31 03:37:27;;;;;;;5.10;1.40;;;;;;;17.02;69.27;100830.80;103286;1278;139373;-68
2022/08/31 03:39:59;;;;;;;5.70;1.50;;;;;;;17.01;69.26;100835.31;103355;1279;99377;-71
2022/08/31 03:42:27;;;;;;;4.80;1.40;;;;;;;17.00;69.30;100837.54;104232;1279;138244;-68
2022/08/31 03:44:58;;;;;;;5.80;1.30;;;;;;;16.99;69.23;100842.05;103370;1279;95723;-68
2022/08/31 03:47:29;;;;;;;5.50;1.40;;;;;;;16.99;69.31;100842.26;103457;1279;95265;-68
2022/08/31 03:49:59;;;;;;;4.70;1.40;;;;;;;17.03;69.26;100841.68;103690;1279;138517;-69
2022/08/31 03:52:38;;;;;;;6.40;1.80;;;;;;;17.07;69.14;100844.04;103480;1279;99434;-69
2022/08/31 03:55:13;;;;;;;4.70;1.40;;;;;;;17.07;68.98;100840.44;103432;1279;138223;-70
2022/08/31 03:57:41;;;;;;;4.80;1.30;;;;;;;17.08;69.03;100843.08;104051;1279;95373;-69
2022/08/31 04:00:09;;;;;;;4.90;1.30;;;;;;;17.05;69.14;100842.34;104101;1279;141133;-69
2022/08/31 04:02:40;;;;;;;5.50;1.40;;;;;;;17.00;69.12;100845.80;104260;1278;109831;-69
2022/08/31 04:05:29;;;;;;;6.80;1.70;;;;;;;16.96;69.39;100839.16;104358;1279;99322;-68
2022/08/31 04:08:17;;;;;;;5.80;1.70;;;;;;;16.95;69.36;100835.95;103446;1279;109290;-67
2022/08/31 04:10:48;;;;;;;4.60;1.20;;;;;;;16.96;69.40;100839.86;103351;1279;95225;-68
2022/08/31 04:13:36;;;;;;;4.90;1.40;;;;;;;16.94;69.36;100846.41;106004;1278;138484;-69
2022/08/31 04:16:27;;;;;;;5.00;1.40;;;;;;;16.94;69.44;100847.69;103013;1279;109694;-68
2022/08/31 04:19:15;;;;;;;7.20;1.60;;;;;;;16.98;69.44;100854.67;103270;1279;138714;-68
2022/08/31 04:21:52;;;;;;;5.40;1.70;;;;;;;16.99;69.34;100849.22;104604;1279;108837;-68
2022/08/31 04:24:20;;;;;;;6.30;1.60;;;;;;;17.03;69.26;100853.35;103203;1279;138749;-69
2022/08/31 04:26:51;;;;;;;6.20;1.50;;;;;;;17.07;69.21;100858.75;103545;1279;95318;-68
2022/08/31 04:29:20;;;;;;;6.80;1.50;;;;;;;17.09;69.15;100860.81;104734;1278;110670;-68
2022/08/31 04:31:48;;;;;;;5.40;1.40;;;;;;;17.12;69.10;100863.35;104438;1279;138877;-69
2022/08/31 04:34:16;;;;;;;7.20;1.60;;;;;;;17.15;68.97;100864.84;103371;1278;108755;-69
2022/08/31 04:36:44;;;;;;;6.40;1.50;;;;;;;17.16;68.98;100863.16;103222;1279;138400;-68
2022/08/31 04:39:13;;;;;;;6.40;1.60;;;;;;;17.13;68.93;100867.78;105134;1278;95124;-68
2022/08/31 04:41:43;;;;;;;6.90;1.50;;;;;;;17.10;69.02;100867.73;103298;1279;139311;-68
2022/08/31 04:44:13;;;;;;;5.30;1.40;;;;;;;17.09;69.15;100871.02;103481;1279;99320;-68
2022/08/31 04:46:47;;;;;;;6.30;1.50;;;;;;;17.08;69.25;100876.80;107229;1279;108089;-68
2022/08/31 04:49:15;;;;;;;6.40;1.40;;;;;;;17.07;69.13;100876.49;107146;1278;138411;-68
2022/08/31 04:51:43;;;;;;;5.40;1.50;;;;;;;17.11;69.28;100881.17;107239;1279;93205;-69
2022/08/31 04:54:13;;;;;;;9.90;1.70;;;;;;;17.16;69.00;100875.90;106053;1279;140097;-69
2022/08/31 04:56:44;;;;;;;5.60;1.70;;;;;;;17.18;68.83;100878.48;103495;1279;101793;-69
2022/08/31 04:59:17;;;;;;;5.50;1.30;;;;;;;17.16;68.74;100880.92;103622;1278;109411;-69
2022/08/31 05:02:05;;;;;;;6.80;1.40;;;;;;;17.13;68.86;100881.42;103354;1279;96465;-67
2022/08/31 05:04:39;;;;;;;7.30;1.60;;;;;;;17.14;68.78;100879.25;103515;1279;95658;-68
2022/08/31 05:07:07;;;;;;;6.60;1.60;;;;;;;17.10;68.71;100877.45;103334;1279;138541;-68
2022/08/31 05:09:35;;;;;;;6.30;1.30;;;;;;;17.10;68.83;100881.40;103331;1279;99896;-68
2022/08/31 05:12:03;;;;;;;6.10;1.50;;;;;;;17.13;68.84;100883.76;103310;1279;139230;-68
2022/08/31 05:14:31;;;;;;;6.60;1.50;;;;;;;17.15;68.87;100881.50;103313;1279;95213;-68
2022/08/31 05:17:01;;;;;;;6.70;1.70;;;;;;;17.20;68.94;100877.52;103453;1279;95820;-69
2022/08/31 05:19:30;;;;;;;7.50;1.60;;;;;;;17.22;68.70;100879.21;103369;1279;138133;-68
2022/08/31 05:21:59;;;;;;;7.30;1.40;;;;;;;17.20;68.75;100879.85;103437;1279;99412;-68
2022/08/31 05:24:27;;;;;;;7.60;1.60;;;;;;;17.19;68.87;100880.94;103607;1279;140502;-68
2022/08/31 05:26:55;;;;;;;9.30;1.90;;;;;;;17.23;68.75;100884.92;103239;1280;95634;-68
2022/08/31 05:29:24;;;;;;;7.60;1.50;;;;;;;17.27;68.59;100888.66;105092;1279;95149;-69
2022/08/31 05:32:11;;;;;;;6.40;1.70;;;;;;;17.30;68.40;100892.49;103320;1279;109846;-68
2022/08/31 05:34:39;;;;;;;8.80;1.50;;;;;;;17.32;68.22;100894.55;103393;1279;99439;-68
2022/08/31 05:37:07;;;;;;;6.40;1.50;;;;;;;17.36;68.12;100895.96;103187;1279;139235;-68
2022/08/31 05:39:36;;;;;;;6.60;1.30;;;;;;;17.35;67.76;100901.05;103228;1279;95322;-68
2022/08/31 05:42:06;;;;;;;7.70;1.80;;;;;;;17.35;67.91;100903.38;103173;1279;138743;-68
2022/08/31 05:44:35;;;;;;;8.40;1.50;;;;;;;17.40;68.15;100899.20;103336;1279;109726;-69
2022/08/31 05:47:07;;;;;;;7.80;1.60;;;;;;;17.48;67.86;100896.66;103892;1279;99482;-69
2022/08/31 05:49:35;;;;;;;8.50;1.70;;;;;;;17.52;67.57;100900.09;103243;1280;138684;-69
2022/08/31 05:52:06;;;;;;;7.60;1.30;;;;;;;17.54;67.33;100900.33;103237;1279;95175;-69
2022/08/31 05:54:39;;;;;;;8.80;1.60;;;;;;;17.59;67.25;100903.70;103267;1279;138845;-68
2022/08/31 05:57:07;;;;;;;6.40;1.50;;;;;;;17.59;67.01;100902.45;103681;1279;109797;-70
2022/08/31 05:59:38;;;;;;;8.00;1.90;;;;;;;17.58;66.89;100906.27;103528;1279;139233;-69
2022/08/31 06:02:09;;;;;;;6.70;1.70;;;;;;;17.63;67.03;100905.69;104213;1279;108518;-67
2022/08/31 06:04:38;;;;;;;6.80;1.70;;;;;;;17.67;66.98;100907.60;103561;1279;95653;-68
2022/08/31 06:07:07;;;;;;;8.70;1.80;;;;;;;17.72;66.99;100908.13;103127;1279;139074;-68
2022/08/31 06:09:40;;;;;;;9.40;1.50;;;;;;;17.81;66.86;100911.97;103300;1279;109017;-71
2022/08/31 06:12:10;;;;;;;8.90;1.70;;;;;;;17.90;66.58;100919.63;104127;1278;138843;-69
2022/08/31 06:14:39;;;;;;;9.20;1.60;;;;;;;17.98;66.07;100919.10;103299;1279;109416;-68
2022/08/31 06:17:15;;;;;;;11.80;1.80;;;;;;;18.03;65.86;100923.19;103328;1278;97068;-69
2022/08/31 06:19:43;;;;;;;6.80;1.50;;;;;;;18.06;65.77;100926.29;103027;1279;139278;-69
2022/08/31 06:22:11;;;;;;;8.70;1.70;;;;;;;18.11;64.67;100928.86;104604;1278;109777;-68
2022/08/31 06:24:39;;;;;;;28.90;17.40;;;;;;;18.14;64.46;100928.22;103321;1279;139428;-69
2022/08/31 06:27:09;;;;;;;9.40;2.50;;;;;;;18.18;64.51;100930.15;103354;1277;108706;-70
2022/08/31 06:29:37;;;;;;;7.60;1.40;;;;;;;18.22;64.70;100926.91;103324;1278;138627;-68
2022/08/31 06:32:08;;;;;;;8.90;1.60;;;;;;;18.24;64.20;100923.77;103416;1278;95145;-68
2022/08/31 06:34:48;;;;;;;6.90;1.40;;;;;;;18.25;63.79;100928.76;103898;1277;109775;-68
2022/08/31 06:37:34;;;;;;;6.60;1.60;;;;;;;18.21;63.21;100928.92;103278;1279;138309;-68
2022/08/31 06:40:05;;;;;;;7.70;1.40;;;;;;;18.22;63.46;100923.83;103334;1277;108692;-68
2022/08/31 06:42:54;;;;;;;8.60;1.50;;;;;;;18.27;63.32;100925.25;103035;1279;138574;-67
2022/08/31 06:45:45;;;;;;;6.50;1.40;;;;;;;18.25;62.85;100927.48;103638;1279;97509;-70
2022/08/31 06:48:33;;;;;;;7.40;1.30;;;;;;;18.25;63.03;100929.45;103066;1279;139284;-69
2022/08/31 06:51:02;;;;;;;16.10;8.70;;;;;;;18.27;63.07;100925.80;107215;1279;99617;-69
2022/08/31 06:53:30;;;;;;;4.60;1.00;;;;;;;18.29;62.34;100923.72;104187;1278;109065;-70
2022/08/31 06:56:13;;;;;;;4.40;0.70;;;;;;;18.25;62.15;100924.61;104325;1279;95466;-70
2022/08/31 06:59:11;;;;;;;4.90;1.00;;;;;;;18.29;62.04;100924.98;104021;1278;95167;-70
2022/08/31 07:02:05;;;;;;;5.10;0.90;;;;;;;18.35;61.31;100929.48;104291;1279;109887;-72
2022/08/31 07:04:37;;;;;;;3.70;0.90;;;;;;;18.40;61.06;100930.69;105058;1277;99511;-70
2022/08/31 07:07:10;;;;;;;3.60;0.90;;;;;;;18.44;60.87;100931.73;105960;1279;150784;-71
2022/08/31 07:09:40;;;;;;;3.70;0.90;;;;;;;18.51;59.62;100935.86;104382;1279;95547;-73
2022/08/31 07:12:09;;;;;;;4.30;0.90;;;;;;;18.57;59.06;100933.79;104325;1279;138427;-70
2022/08/31 07:14:37;;;;;;;4.40;0.90;;;;;;;18.61;59.08;100937.17;107190;1279;110406;-72
2022/08/31 07:17:07;;;;;;;4.40;0.70;;;;;;;18.59;58.15;100937.29;107253;1279;98772;-71
2022/08/31 07:19:35;;;;;;;3.40;0.80;;;;;;;18.55;58.19;100937.10;107153;1279;139001;-72
2022/08/31 07:22:08;;;;;;;3.80;0.70;;;;;;;18.59;58.65;100937.29;107198;1278;93382;-71
2022/08/31 07:24:41;;;;;;;4.20;1.00;;;;;;;18.65;58.10;100936.99;107163;1279;141078;-71
2022/08/31 07:27:15;;;;;;;3.50;0.90;;;;;;;18.72;58.04;100939.67;107212;1279;109080;-72
2022/08/31 07:29:50;;;;;;;22.80;17.00;;;;;;;18.79;58.54;100938.21;107070;1278;138432;-72
2022/08/31 07:32:18;;;;;;;6.20;1.20;;;;;;;18.83;58.24;100939.48;104400;1278;107991;-71
2022/08/31 07:34:49;;;;;;;6.70;1.20;;;;;;;18.85;57.70;100944.77;104237;1281;95463;-71
2022/08/31 07:43:27;;;;;;;3.60;1.00;;;;;;;19.23;57.78;100944.23;104221;1280;138845;-70
2022/08/31 07:45:55;;;;;;;5.30;1.10;;;;;;;19.31;57.01;100938.97;104313;1279;109094;-71
2022/08/31 07:48:26;;;;;;;6.90;0.90;;;;;;;19.45;56.74;100941.61;104449;1279;138734;-71
2022/08/31 07:51:16;;;;;;;4.80;1.00;;;;;;;19.60;55.76;100938.29;104450;1281;95499;-71
2022/08/31 07:53:53;;;;;;;4.70;0.80;;;;;;;19.70;54.21;100938.21;104146;1281;139273;-71
2022/08/31 07:56:32;;;;;;;3.50;0.80;;;;;;;19.77;53.46;100942.58;104442;1278;98558;-72
2022/08/31 07:59:32;;;;;;;5.00;0.70;;;;;;;19.85;53.32;100938.52;104286;1279;109498;-71
2022/08/31 08:02:03;;;;;;;3.00;0.80;;;;;;;19.99;53.41;100941.16;104367;1278;95875;-70
2022/08/31 08:04:33;;;;;;;5.90;1.10;;;;;;;20.03;51.81;100942.75;104455;1278;95145;-72
2022/08/31 08:07:52;;;;;;;4.00;0.80;;;;;;;20.06;52.46;100941.14;104260;1280;138237;-72
2022/08/31 08:10:50;;;;;;;5.10;0.90;;;;;;;20.12;51.70;100942.37;103870;1283;99890;-72
2022/08/31 08:13:39;;;;;;;4.80;0.80;;;;;;;20.12;51.30;100946.34;104246;1281;138246;-69
2022/08/31 08:16:27;;;;;;;6.90;0.80;;;;;;;20.07;50.29;100944.88;104341;1280;95318;-73
2022/08/31 08:19:14;;;;;;;4.60;0.60;;;;;;;19.97;50.29;100944.49;104207;1279;139202;-70
2022/08/31 08:21:44;;;;;;;4.90;0.70;;;;;;;20.00;50.25;100947.08;104382;1278;109357;-70
2022/08/31 08:24:14;;;;;;;4.10;0.70;;;;;;;20.06;50.03;100950.30;107142;1278;139427;-71
2022/08/31 08:27:12;;;;;;;5.00;0.90;;;;;;;20.17;49.95;100954.55;107129;1277;109046;-71
2022/08/31 08:29:50;;;;;;;2.60;0.70;;;;;;;20.33;49.68;100947.11;104996;1281;139057;-72
2022/08/31 08:32:24;;;;;;;4.20;0.70;;;;;;;20.48;49.10;100951.12;104306;1280;95169;-73
2022/08/31 08:34:52;;;;;;;3.60;0.70;;;;;;;20.58;46.98;100943.88;104314;1278;110545;-70
2022/08/31 08:37:20;;;;;;;2.70;0.60;;;;;;;20.60;45.91;100946.27;104273;1277;139273;-70
2022/08/31 08:40:23;;;;;;;3.50;0.60;;;;;;;20.67;45.56;100948.92;104338;1281;108802;-72
2022/08/31 08:42:52;;;;;;;2.90;0.60;;;;;;;20.80;45.69;100945.66;104146;1280;138990;-70
2022/08/31 08:45:22;;;;;;;3.20;0.90;;;;;;;20.93;45.81;100949.36;106984;1278;93285;-71
2022/08/31 08:47:55;;;;;;;3.70;0.60;;;;;;;20.93;45.30;100950.10;104100;1281;138387;-70
2022/08/31 08:50:27;;;;;;;2.90;0.60;;;;;;;21.04;45.37;100950.89;107033;1280;99216;-71
2022/08/31 08:52:57;;;;;;;3.40;0.70;;;;;;;21.15;45.18;100947.50;107307;1277;108732;-71
2022/08/31 08:55:34;;;;;;;4.30;0.80;;;;;;;21.27;45.17;100949.80;107071;1279;138391;-71
2022/08/31 08:58:09;;;;;;;4.80;0.90;;;;;;;21.39;43.69;100950.88;107200;1278;93949;-71
2022/08/31 09:00:45;;;;;;;3.70;0.70;;;;;;;21.47;43.29;100952.58;105682;1278;1631840;-69
2022/08/31 09:03:22;;;;;;;7.60;3.20;;;;;;;21.55;43.17;100949.73;107214;1278;99464;-71
2022/08/31 09:06:42;;;;;;;4.10;0.70;;;;;;;21.72;43.57;100946.31;106082;1279;138487;-73
2022/08/31 09:09:35;;;;;;;5.60;0.70;;;;;;;21.92;43.51;100949.85;104121;1278;95747;-71
2022/08/31 09:12:30;;;;;;;5.10;0.70;;;;;;;22.19;43.15;100952.66;104292;1279;138474;-71
2022/08/31 09:15:40;;;;;;;3.50;0.60;;;;;;;22.53;42.16;100949.32;104345;1279;109052;-71
2022/08/31 09:18:14;;;;;;;3.60;0.60;;;;;;;22.71;40.54;100950.77;104190;1279;139114;-70
2022/08/31 09:20:42;;;;;;;6.20;0.80;;;;;;;22.99;40.93;100950.86;107185;1279;108728;-70
2022/08/31 09:23:13;;;;;;;3.00;0.70;;;;;;;23.79;40.46;100949.98;104261;1281;96135;-70
2022/08/31 09:25:51;;;;;;;4.20;1.10;;;;;;;25.22;39.20;100942.90;104260;1280;139193;-70
2022/08/31 09:28:45;;;;;;;2.10;0.50;;;;;;;27.82;34.37;100941.42;104327;1281;109814;-70
2022/08/31 09:31:32;;;;;;;2.70;0.70;;;;;;;29.22;30.63;100936.33;104137;1281;138449;-71
2022/08/31 09:34:03;;;;;;;5.40;0.80;;;;;;;30.80;28.30;100936.72;104401;1279;108794;-71
2022/08/31 09:36:40;;;;;;;3.60;0.60;;;;;;;32.19;27.27;100937.98;104338;1277;139368;-71
2022/08/31 09:39:21;;;;;;;4.90;0.80;;;;;;;33.62;25.62;100935.59;107155;1277;93502;-72
2022/08/31 09:41:49;;;;;;;2.30;0.50;;;;;;;34.91;23.35;100933.97;107144;1277;139136;-72
2022/08/31 09:44:38;;;;;;;2.90;0.60;;;;;;;35.81;23.46;100939.40;107397;1277;98086;-72
2022/08/31 09:47:47;;;;;;;3.10;0.60;;;;;;;36.37;22.43;100932.69;107158;1277;108524;-72
2022/08/31 09:50:32;;;;;;;4.30;0.60;;;;;;;36.96;21.53;100930.11;107327;1277;94503;-73
2022/08/31 09:56:20;;;;;;;4.30;0.70;;;;;;;38.83;19.51;100926.02;107376;1276;110139;-70
2022/08/31 09:59:03;;;;;;;3.70;0.60;;;;;;;39.26;17.77;100926.90;105669;1277;100345;-71
2022/08/31 10:01:42;;;;;;;3.00;0.50;;;;;;;39.82;17.40;100928.35;104421;1277;138547;-73
2022/08/31 10:04:16;;;;;;;4.70;0.60;;;;;;;40.21;17.12;100929.06;104400;1277;95837;-71
2022/08/31 10:07:23;;;;;;;4.00;0.60;;;;;;;40.42;16.63;100930.73;104276;1277;138098;-75
2022/08/31 10:09:57;;;;;;;3.90;0.60;;;;;;;40.96;16.53;100926.10;104518;1277;109938;-73
2022/08/31 10:12:41;;;;;;;3.20;0.60;;;;;;;41.31;15.82;100921.16;104339;1277;138630;-72
2022/08/31 10:15:22;;;;;;;4.90;0.70;;;;;;;41.62;15.38;100922.78;104489;1277;108926;-72
2022/08/31 10:18:10;;;;;;;3.30;0.60;;;;;;;41.40;14.68;100916.46;104498;1278;139448;-73
2022/08/31 10:20:50;;;;;;;3.30;0.70;;;;;;;41.71;14.92;100918.90;104561;1277;94767;-72
2022/08/31 10:23:52;;;;;;;5.70;0.70;;;;;;;42.12;14.66;100916.34;104417;1277;108438;-71
2022/08/31 10:26:42;;;;;;;3.20;0.70;;;;;;;41.76;14.51;100914.10;104443;1277;98193;-72
2022/08/31 10:29:30;;;;;;;3.10;0.60;;;;;;;42.14;14.73;100915.66;104476;1277;109120;-73
2022/08/31 10:32:04;;;;;;;4.40;0.60;;;;;;;42.66;14.07;100912.57;104483;1278;138586;-73
2022/08/31 10:37:32;;;;;;;2.00;0.50;;;;;;;42.66;14.09;100907.45;104479;1278;139360;-72
2022/08/31 10:40:30;;;;;;;2.50;0.50;;;;;;;42.15;13.63;100906.52;104562;1279;99389;-74
2022/08/31 10:43:28;;;;;;;6.60;1.00;;;;;;;39.50;14.63;100912.38;104418;1279;138119;-71
2022/08/31 10:45:58;;;;;;;3.00;0.70;;;;;;;36.94;16.29;100911.23;104640;1279;95259;-71
2022/08/31 10:48:26;;;;;;;5.80;0.70;;;;;;;35.49;18.00;100915.80;104406;1277;138620;-71
2022/08/31 10:51:21;;;;;;;3.90;0.60;;;;;;;36.01;17.53;100910.83;104505;1277;108239;-70
2022/08/31 10:54:05;;;;;;;3.30;0.60;;;;;;;34.72;18.51;100910.65;104265;1277;139260;-72
2022/08/31 10:56:58;;;;;;;3.30;0.50;;;;;;;33.48;19.95;100910.88;104533;1277;108857;-73
2022/08/31 10:59:58;;;;;;;12.40;7.70;;;;;;;32.45;21.07;100906.48;104491;1277;95167;-73
2022/08/31 11:02:44;;;;;;;5.10;0.80;;;;;;;31.41;21.82;100906.74;104584;1277;95569;-73
2022/08/31 11:05:35;;;;;;;7.10;0.90;;;;;;;30.67;23.25;100909.51;104469;1278;109729;-73
2022/08/31 11:08:30;;;;;;;2.60;0.80;;;;;;;29.82;23.58;100904.52;104533;1277;99475;-71
2022/08/31 11:10:59;;;;;;;3.40;0.50;;;;;;;29.12;23.69;100905.30;104531;1277;109682;-72
2022/08/31 11:13:59;;;;;;;2.70;0.60;;;;;;;28.58;24.39;100901.77;105700;1276;138900;-70
2022/08/31 11:17:01;;;;;;;3.20;0.60;;;;;;;27.96;25.86;100900.05;104431;1277;95241;-72
2022/08/31 11:19:49;;;;;;;2.80;0.60;;;;;;;27.25;26.23;100896.58;104440;1276;139997;-73
2022/08/31 11:23:00;;;;;;;3.80;0.60;;;;;;;26.59;27.06;100890.77;104448;1277;98358;-72
2022/08/31 11:25:46;;;;;;;3.00;0.60;;;;;;;26.42;27.22;100887.73;104213;1277;138537;-72
2022/08/31 11:28:32;;;;;;;4.60;1.00;;;;;;;26.20;28.24;100883.73;104381;1277;95234;-73
2022/08/31 11:31:07;;;;;;;6.30;0.80;;;;;;;25.88;29.54;100887.99;105492;1277;138193;-71
2022/08/31 11:33:35;;;;;;;4.10;0.90;;;;;;;25.62;29.10;100888.89;104342;1277;108168;-72
2022/08/31 11:36:07;;;;;;;3.70;0.80;;;;;;;25.39;29.30;100888.73;104213;1279;138572;-72
2022/08/31 11:38:41;;;;;;;4.10;0.80;;;;;;;25.15;29.99;100885.23;104855;1279;111902;-72
2022/08/31 11:41:12;;;;;;;3.70;0.80;;;;;;;25.00;29.81;100887.08;104468;1278;95329;-71
2022/08/31 11:43:47;;;;;;;3.40;0.70;;;;;;;24.80;29.76;100884.16;104224;1278;138759;-71
2022/08/31 11:46:24;;;;;;;3.20;0.70;;;;;;;24.67;30.44;100881.17;104285;1279;109667;-71
2022/08/31 11:48:53;;;;;;;2.50;0.60;;;;;;;24.55;30.67;100884.40;104126;1279;138758;-73
2022/08/31 11:51:39;;;;;;;2.90;0.70;;;;;;;24.46;30.78;100881.48;104335;1278;107807;-72
2022/08/31 11:54:40;;;;;;;4.30;0.90;;;;;;;24.42;31.69;100884.36;104194;1278;138381;-73
2022/08/31 11:57:14;;;;;;;2.90;0.50;;;;;;;24.28;31.64;100878.53;104293;1278;95162;-72
2022/08/31 11:59:45;;;;;;;3.00;0.90;;;;;;;24.11;31.91;100879.41;104231;1277;138354;-72
2022/08/31 12:02:19;;;;;;;2.50;0.60;;;;;;;23.90;32.33;100884.47;104248;1278;99557;-71
2022/08/31 12:05:01;;;;;;;3.10;0.60;;;;;;;23.73;32.44;100874.39;104246;1278;108872;-72